sensor_id;sensor_type;location;lat;lon;timestamp;P1;durP1;ratioP1;P2;durP2;ratioP2
26530;SDS011;14201;43.188;24.160;2023-07-20T00:07:52;13.45;;;2.83;;
26530;SDS011;14201;43.188;24.160;2023-07-20T00:10:18;10.63;;;2.78;;
26530;SDS011;14201;43.188;24.160;2023-07-20T00:12:43;7.47;;;2.53;;
26530;SDS011;14201;43.188;24.160;2023-07-20T00:15:12;6.88;;;2.50;;
26530;SDS011;14201;43.188;24.160;2023-07-20T00:17:38;8.95;;;3.13;;
26530;SDS011;14201;43.188;24.160;2023-07-20T00:20:05;14.70;;;3.22;;
26530;SDS011;14201;43.188;24.160;2023-07-20T00:22:31;13.32;;;3.40;;
26530;SDS011;14201;43.188;24.160;2023-07-20T00:24:57;11.38;;;3.30;;
26530;SDS011;14201;43.188;24.160;2023-07-20T00:27:22;18.33;;;3.17;;
26530;SDS011;14201;43.188;24.160;2023-07-20T00:29:48;14.48;;;3.38;;
26530;SDS011;14201;43.188;24.160;2023-07-20T00:32:13;14.23;;;3.47;;
26530;SDS011;14201;43.188;24.160;2023-07-20T00:34:39;12.80;;;2.97;;
26530;SDS011;14201;43.188;24.160;2023-07-20T00:37:04;9.07;;;3.38;;
26530;SDS011;14201;43.188;24.160;2023-07-20T00:39:30;12.82;;;3.30;;
26530;SDS011;14201;43.188;24.160;2023-07-20T00:41:56;9.73;;;2.70;;
26530;SDS011;14201;43.188;24.160;2023-07-20T00:44:21;10.68;;;2.90;;
26530;SDS011;14201;43.188;24.160;2023-07-20T00:46:47;14.52;;;2.92;;
26530;SDS011;14201;43.188;24.160;2023-07-20T00:49:13;12.27;;;2.60;;
26530;SDS011;14201;43.188;24.160;2023-07-20T00:51:39;13.63;;;2.83;;
26530;SDS011;14201;43.188;24.160;2023-07-20T00:54:05;10.68;;;3.20;;
26530;SDS011;14201;43.188;24.160;2023-07-20T00:56:30;11.82;;;2.92;;
26530;SDS011;14201;43.188;24.160;2023-07-20T00:58:56;9.40;;;2.97;;
26530;SDS011;14201;43.188;24.160;2023-07-20T01:01:22;11.68;;;3.00;;
26530;SDS011;14201;43.188;24.160;2023-07-20T01:03:48;10.63;;;3.10;;
26530;SDS011;14201;43.188;24.160;2023-07-20T01:06:25;8.48;;;3.20;;
26530;SDS011;14201;43.188;24.160;2023-07-20T01:12:26;10.52;;;3.10;;
26530;SDS011;14201;43.188;24.160;2023-07-20T01:14:35;7.95;;;2.90;;
26530;SDS011;14201;43.188;24.160;2023-07-20T01:17:02;11.40;;;2.90;;
26530;SDS011;14201;43.188;24.160;2023-07-20T01:19:27;8.50;;;3.05;;
26530;SDS011;14201;43.188;24.160;2023-07-20T01:21:55;8.73;;;2.80;;
26530;SDS011;14201;43.188;24.160;2023-07-20T04:32:57;12.73;;;3.42;;
26530;SDS011;14201;43.188;24.160;2023-07-20T04:38:18;11.00;;;4.10;;
26530;SDS011;14201;43.188;24.160;2023-07-20T04:40:48;11.52;;;4.22;;
26530;SDS011;14201;43.188;24.160;2023-07-20T04:43:14;11.27;;;3.63;;
26530;SDS011;14201;43.188;24.160;2023-07-20T04:45:41;13.10;;;3.80;;
26530;SDS011;14201;43.188;24.160;2023-07-20T04:48:08;17.67;;;4.10;;
26530;SDS011;14201;43.188;24.160;2023-07-20T04:50:38;14.52;;;4.05;;
26530;SDS011;14201;43.188;24.160;2023-07-20T04:53:05;14.10;;;4.15;;
26530;SDS011;14201;43.188;24.160;2023-07-20T04:55:31;11.10;;;3.90;;
26530;SDS011;14201;43.188;24.160;2023-07-20T04:57:59;10.10;;;3.30;;
26530;SDS011;14201;43.188;24.160;2023-07-20T05:00:26;10.27;;;3.95;;
26530;SDS011;14201;43.188;24.160;2023-07-20T05:02:51;10.20;;;3.85;;
26530;SDS011;14201;43.188;24.160;2023-07-20T05:05:17;7.00;;;3.30;;
26530;SDS011;14201;43.188;24.160;2023-07-20T05:07:42;9.05;;;3.75;;
26530;SDS011;14201;43.188;24.160;2023-07-20T05:10:08;6.13;;;3.20;;
26530;SDS011;14201;43.188;24.160;2023-07-20T05:12:34;10.45;;;3.63;;
26530;SDS011;14201;43.188;24.160;2023-07-20T05:15:00;13.52;;;4.03;;
26530;SDS011;14201;43.188;24.160;2023-07-20T05:17:25;11.45;;;3.47;;
26530;SDS011;14201;43.188;24.160;2023-07-20T05:19:51;11.32;;;3.92;;
26530;SDS011;14201;43.188;24.160;2023-07-20T05:22:16;8.65;;;3.97;;
26530;SDS011;14201;43.188;24.160;2023-07-20T05:24:42;15.15;;;3.92;;
26530;SDS011;14201;43.188;24.160;2023-07-20T05:27:08;12.65;;;4.30;;
26530;SDS011;14201;43.188;24.160;2023-07-20T05:29:33;12.50;;;3.75;;
26530;SDS011;14201;43.188;24.160;2023-07-20T05:31:59;9.68;;;3.97;;
26530;SDS011;14201;43.188;24.160;2023-07-20T05:34:25;9.48;;;3.83;;
26530;SDS011;14201;43.188;24.160;2023-07-20T05:37:08;12.93;;;3.72;;
26530;SDS011;14201;43.188;24.160;2023-07-20T05:39:34;12.40;;;3.92;;
26530;SDS011;14201;43.188;24.160;2023-07-20T05:42:00;13.82;;;3.90;;
26530;SDS011;14201;43.188;24.160;2023-07-20T05:44:25;6.03;;;3.22;;
26530;SDS011;14201;43.188;24.160;2023-07-20T05:46:51;9.07;;;3.45;;
26530;SDS011;14201;43.188;24.160;2023-07-20T05:49:16;9.38;;;3.15;;
26530;SDS011;14201;43.188;24.160;2023-07-20T05:51:42;6.45;;;3.17;;
26530;SDS011;14201;43.188;24.160;2023-07-20T05:54:07;11.07;;;4.43;;
26530;SDS011;14201;43.188;24.160;2023-07-20T05:56:33;9.02;;;3.78;;
26530;SDS011;14201;43.188;24.160;2023-07-20T05:58:59;11.18;;;3.10;;
26530;SDS011;14201;43.188;24.160;2023-07-20T06:01:24;9.70;;;3.67;;
26530;SDS011;14201;43.188;24.160;2023-07-20T06:03:52;12.45;;;3.55;;
26530;SDS011;14201;43.188;24.160;2023-07-20T06:06:18;11.23;;;3.55;;
26530;SDS011;14201;43.188;24.160;2023-07-20T06:08:44;10.60;;;3.50;;
26530;SDS011;14201;43.188;24.160;2023-07-20T06:11:09;10.88;;;3.10;;
26530;SDS011;14201;43.188;24.160;2023-07-20T06:13:35;12.15;;;3.53;;
26530;SDS011;14201;43.188;24.160;2023-07-20T06:16:01;12.02;;;2.83;;
26530;SDS011;14201;43.188;24.160;2023-07-20T06:18:27;11.88;;;2.90;;
26530;SDS011;14201;43.188;24.160;2023-07-20T06:20:52;10.65;;;3.05;;
26530;SDS011;14201;43.188;24.160;2023-07-20T06:23:19;8.15;;;2.95;;
26530;SDS011;14201;43.188;24.160;2023-07-20T06:25:45;13.45;;;3.78;;
26530;SDS011;14201;43.188;24.160;2023-07-20T06:28:11;10.07;;;2.80;;
26530;SDS011;14201;43.188;24.160;2023-07-20T06:30:37;10.40;;;3.22;;
26530;SDS011;14201;43.188;24.160;2023-07-20T08:02:52;4.93;;;1.63;;
26530;SDS011;14201;43.188;24.160;2023-07-20T08:05:18;6.40;;;1.50;;
26530;SDS011;14201;43.188;24.160;2023-07-20T08:07:43;3.78;;;1.50;;
26530;SDS011;14201;43.188;24.160;2023-07-20T08:10:09;4.68;;;1.40;;
26530;SDS011;14201;43.188;24.160;2023-07-20T08:12:35;5.32;;;1.73;;
26530;SDS011;14201;43.188;24.160;2023-07-20T08:15:01;7.65;;;1.80;;
26530;SDS011;14201;43.188;24.160;2023-07-20T08:17:27;5.82;;;2.00;;
26530;SDS011;14201;43.188;24.160;2023-07-20T08:19:52;9.98;;;2.10;;
26530;SDS011;14201;43.188;24.160;2023-07-20T08:22:18;4.43;;;1.90;;
26530;SDS011;14201;43.188;24.160;2023-07-20T08:24:44;6.47;;;1.85;;
26530;SDS011;14201;43.188;24.160;2023-07-20T08:27:10;4.95;;;2.13;;
26530;SDS011;14201;43.188;24.160;2023-07-20T08:29:35;7.68;;;1.92;;
26530;SDS011;14201;43.188;24.160;2023-07-20T08:32:02;6.10;;;2.22;;
26530;SDS011;14201;43.188;24.160;2023-07-20T08:34:29;5.90;;;2.00;;
26530;SDS011;14201;43.188;24.160;2023-07-20T08:36:55;10.63;;;2.42;;
26530;SDS011;14201;43.188;24.160;2023-07-20T08:39:21;6.57;;;1.85;;
26530;SDS011;14201;43.188;24.160;2023-07-20T08:41:48;6.05;;;2.10;;
26530;SDS011;14201;43.188;24.160;2023-07-20T08:44:14;6.57;;;2.72;;
26530;SDS011;14201;43.188;24.160;2023-07-20T08:46:40;8.70;;;1.90;;
26530;SDS011;14201;43.188;24.160;2023-07-20T08:49:06;4.22;;;2.13;;
26530;SDS011;14201;43.188;24.160;2023-07-20T08:51:32;4.68;;;2.03;;
26530;SDS011;14201;43.188;24.160;2023-07-20T08:53:59;5.30;;;2.05;;
26530;SDS011;14201;43.188;24.160;2023-07-20T08:56:25;9.57;;;3.17;;
26530;SDS011;14201;43.188;24.160;2023-07-20T08:58:52;6.82;;;2.20;;
26530;SDS011;14201;43.188;24.160;2023-07-20T09:01:19;7.60;;;2.00;;
26530;SDS011;14201;43.188;24.160;2023-07-20T09:03:45;5.55;;;1.70;;
26530;SDS011;14201;43.188;24.160;2023-07-20T09:06:12;6.43;;;1.60;;
26530;SDS011;14201;43.188;24.160;2023-07-20T09:08:39;5.85;;;2.03;;
26530;SDS011;14201;43.188;24.160;2023-07-20T09:11:05;7.28;;;2.10;;
26530;SDS011;14201;43.188;24.160;2023-07-20T09:13:34;3.72;;;1.80;;
26530;SDS011;14201;43.188;24.160;2023-07-20T09:16:00;4.87;;;1.70;;
26530;SDS011;14201;43.188;24.160;2023-07-20T09:18:29;7.65;;;1.98;;
26530;SDS011;14201;43.188;24.160;2023-07-20T09:21:03;4.35;;;1.50;;
26530;SDS011;14201;43.188;24.160;2023-07-20T09:23:34;8.30;;;1.75;;
26530;SDS011;14201;43.188;24.160;2023-07-20T09:26:10;5.75;;;1.65;;
26530;SDS011;14201;43.188;24.160;2023-07-20T09:28:52;4.28;;;1.50;;
26530;SDS011;14201;43.188;24.160;2023-07-20T09:31:19;5.70;;;1.63;;
26530;SDS011;14201;43.188;24.160;2023-07-20T09:33:47;5.45;;;1.58;;
26530;SDS011;14201;43.188;24.160;2023-07-20T09:36:13;7.47;;;2.08;;
26530;SDS011;14201;43.188;24.160;2023-07-20T09:38:42;5.47;;;1.60;;
26530;SDS011;14201;43.188;24.160;2023-07-20T09:41:12;7.10;;;1.90;;
26530;SDS011;14201;43.188;24.160;2023-07-20T09:43:39;7.05;;;1.45;;
26530;SDS011;14201;43.188;24.160;2023-07-20T09:46:05;6.28;;;1.48;;
26530;SDS011;14201;43.188;24.160;2023-07-20T09:48:31;5.45;;;1.55;;
26530;SDS011;14201;43.188;24.160;2023-07-20T09:50:56;4.25;;;1.70;;
26530;SDS011;14201;43.188;24.160;2023-07-20T09:53:23;4.75;;;1.80;;
26530;SDS011;14201;43.188;24.160;2023-07-20T09:55:50;6.03;;;2.10;;
26530;SDS011;14201;43.188;24.160;2023-07-20T09:58:17;6.15;;;1.63;;
26530;SDS011;14201;43.188;24.160;2023-07-20T10:00:43;5.38;;;1.42;;
26530;SDS011;14201;43.188;24.160;2023-07-20T10:03:13;3.47;;;1.43;;
26530;SDS011;14201;43.188;24.160;2023-07-20T10:05:43;4.65;;;1.60;;
26530;SDS011;14201;43.188;24.160;2023-07-20T10:08:12;4.25;;;1.58;;
26530;SDS011;14201;43.188;24.160;2023-07-20T10:10:42;4.80;;;1.70;;
26530;SDS011;14201;43.188;24.160;2023-07-20T10:13:13;4.43;;;1.60;;
26530;SDS011;14201;43.188;24.160;2023-07-20T10:16:05;5.20;;;1.95;;
26530;SDS011;14201;43.188;24.160;2023-07-20T10:21:23;3.75;;;1.70;;
26530;SDS011;14201;43.188;24.160;2023-07-20T10:23:48;5.97;;;1.88;;
26530;SDS011;14201;43.188;24.160;2023-07-20T10:26:15;6.53;;;1.67;;
26530;SDS011;14201;43.188;24.160;2023-07-20T10:28:40;4.43;;;1.70;;
26530;SDS011;14201;43.188;24.160;2023-07-20T10:31:07;5.43;;;1.60;;
26530;SDS011;14201;43.188;24.160;2023-07-20T10:33:35;4.10;;;1.83;;
26530;SDS011;14201;43.188;24.160;2023-07-20T10:36:03;5.90;;;1.65;;
26530;SDS011;14201;43.188;24.160;2023-07-20T10:38:42;5.93;;;1.45;;
26530;SDS011;14201;43.188;24.160;2023-07-20T10:41:21;8.30;;;1.88;;
26530;SDS011;14201;43.188;24.160;2023-07-20T10:44:07;6.05;;;1.52;;
26530;SDS011;14201;43.188;24.160;2023-07-20T10:46:36;4.07;;;1.30;;
26530;SDS011;14201;43.188;24.160;2023-07-20T10:49:09;3.53;;;1.40;;
26530;SDS011;14201;43.188;24.160;2023-07-20T10:51:45;6.88;;;1.65;;
26530;SDS011;14201;43.188;24.160;2023-07-20T10:56:41;6.75;;;1.60;;
26530;SDS011;14201;43.188;24.160;2023-07-20T10:59:20;8.88;;;1.42;;
26530;SDS011;14201;43.188;24.160;2023-07-20T11:02:07;4.38;;;1.40;;
26530;SDS011;14201;43.188;24.160;2023-07-20T11:07:05;6.32;;;1.70;;
26530;SDS011;14201;43.188;24.160;2023-07-20T11:09:38;7.03;;;1.55;;
26530;SDS011;14201;43.188;24.160;2023-07-20T11:14:40;5.47;;;1.38;;
26530;SDS011;14201;43.188;24.160;2023-07-20T11:17:13;5.90;;;1.75;;
26530;SDS011;14201;43.188;24.160;2023-07-20T11:19:40;6.75;;;1.77;;
26530;SDS011;14201;43.188;24.160;2023-07-20T11:22:07;3.90;;;1.48;;
26530;SDS011;14201;43.188;24.160;2023-07-20T11:24:44;4.38;;;1.40;;
26530;SDS011;14201;43.188;24.160;2023-07-20T11:27:10;5.38;;;1.30;;
26530;SDS011;14201;43.188;24.160;2023-07-20T11:29:37;4.70;;;1.33;;
26530;SDS011;14201;43.188;24.160;2023-07-20T11:32:03;5.97;;;1.65;;
26530;SDS011;14201;43.188;24.160;2023-07-20T11:34:29;3.53;;;1.25;;
26530;SDS011;14201;43.188;24.160;2023-07-20T11:36:56;5.18;;;1.73;;
26530;SDS011;14201;43.188;24.160;2023-07-20T11:39:22;4.72;;;1.75;;
26530;SDS011;14201;43.188;24.160;2023-07-20T11:41:50;4.32;;;1.63;;
26530;SDS011;14201;43.188;24.160;2023-07-20T11:44:17;4.38;;;1.20;;
26530;SDS011;14201;43.188;24.160;2023-07-20T11:46:43;4.68;;;1.20;;
26530;SDS011;14201;43.188;24.160;2023-07-20T11:49:09;5.22;;;1.33;;
26530;SDS011;14201;43.188;24.160;2023-07-20T11:51:35;3.58;;;1.40;;
26530;SDS011;14201;43.188;24.160;2023-07-20T11:54:03;4.03;;;1.35;;
26530;SDS011;14201;43.188;24.160;2023-07-20T11:56:30;5.20;;;1.15;;
26530;SDS011;14201;43.188;24.160;2023-07-20T11:58:57;6.90;;;1.50;;
26530;SDS011;14201;43.188;24.160;2023-07-20T12:01:25;4.05;;;1.30;;
26530;SDS011;14201;43.188;24.160;2023-07-20T12:03:56;6.18;;;1.20;;
26530;SDS011;14201;43.188;24.160;2023-07-20T12:06:27;7.95;;;1.60;;
26530;SDS011;14201;43.188;24.160;2023-07-20T12:08:54;3.72;;;1.48;;
26530;SDS011;14201;43.188;24.160;2023-07-20T12:11:34;5.38;;;1.52;;
26530;SDS011;14201;43.188;24.160;2023-07-20T12:14:01;4.60;;;1.52;;
26530;SDS011;14201;43.188;24.160;2023-07-20T15:55:42;4.22;;;2.08;;
26530;SDS011;14201;43.188;24.160;2023-07-20T15:58:07;5.53;;;1.95;;
26530;SDS011;14201;43.188;24.160;2023-07-20T16:00:33;4.50;;;1.98;;
26530;SDS011;14201;43.188;24.160;2023-07-20T16:02:59;5.10;;;2.00;;
26530;SDS011;14201;43.188;24.160;2023-07-20T16:05:24;6.80;;;2.38;;
26530;SDS011;14201;43.188;24.160;2023-07-20T16:07:50;6.03;;;2.15;;
26530;SDS011;14201;43.188;24.160;2023-07-20T16:10:16;5.50;;;1.85;;
26530;SDS011;14201;43.188;24.160;2023-07-20T16:12:42;8.52;;;2.03;;
26530;SDS011;14201;43.188;24.160;2023-07-20T16:15:08;6.35;;;2.28;;
26530;SDS011;14201;43.188;24.160;2023-07-20T16:17:34;7.13;;;2.10;;
26530;SDS011;14201;43.188;24.160;2023-07-20T16:19:59;4.25;;;1.98;;
26530;SDS011;14201;43.188;24.160;2023-07-20T16:22:25;4.88;;;1.95;;
26530;SDS011;14201;43.188;24.160;2023-07-20T16:24:50;10.15;;;2.50;;
26530;SDS011;14201;43.188;24.160;2023-07-20T16:27:16;7.03;;;2.10;;
26530;SDS011;14201;43.188;24.160;2023-07-20T16:29:42;5.28;;;2.22;;
26530;SDS011;14201;43.188;24.160;2023-07-20T16:32:07;6.07;;;2.30;;
26530;SDS011;14201;43.188;24.160;2023-07-20T16:34:33;6.03;;;2.45;;
26530;SDS011;14201;43.188;24.160;2023-07-20T16:36:59;13.38;;;3.17;;
26530;SDS011;14201;43.188;24.160;2023-07-20T16:39:25;6.93;;;2.47;;
26530;SDS011;14201;43.188;24.160;2023-07-20T16:41:50;5.15;;;2.63;;
26530;SDS011;14201;43.188;24.160;2023-07-20T16:44:16;6.28;;;2.60;;
26530;SDS011;14201;43.188;24.160;2023-07-20T16:46:42;6.95;;;2.72;;
26530;SDS011;14201;43.188;24.160;2023-07-20T16:49:07;5.35;;;2.28;;
26530;SDS011;14201;43.188;24.160;2023-07-20T16:51:34;6.60;;;2.75;;
26530;SDS011;14201;43.188;24.160;2023-07-20T16:54:00;5.72;;;2.80;;
26530;SDS011;14201;43.188;24.160;2023-07-20T16:56:27;7.22;;;2.90;;
26530;SDS011;14201;43.188;24.160;2023-07-20T16:58:52;7.05;;;2.83;;
26530;SDS011;14201;43.188;24.160;2023-07-20T17:01:18;6.72;;;3.17;;
26530;SDS011;14201;43.188;24.160;2023-07-20T17:03:44;8.95;;;2.95;;
26530;SDS011;14201;43.188;24.160;2023-07-20T17:06:09;8.07;;;3.72;;
26530;SDS011;14201;43.188;24.160;2023-07-20T17:08:35;10.18;;;3.30;;
26530;SDS011;14201;43.188;24.160;2023-07-20T17:11:01;6.40;;;3.00;;
26530;SDS011;14201;43.188;24.160;2023-07-20T17:13:28;7.90;;;3.03;;
26530;SDS011;14201;43.188;24.160;2023-07-20T17:15:55;6.70;;;2.90;;
26530;SDS011;14201;43.188;24.160;2023-07-20T17:18:20;7.90;;;3.40;;
26530;SDS011;14201;43.188;24.160;2023-07-20T17:20:46;10.02;;;3.00;;
26530;SDS011;14201;43.188;24.160;2023-07-20T17:23:13;9.85;;;3.28;;
26530;SDS011;14201;43.188;24.160;2023-07-20T17:25:46;8.73;;;3.15;;
26530;SDS011;14201;43.188;24.160;2023-07-20T17:28:12;9.93;;;3.28;;
26530;SDS011;14201;43.188;24.160;2023-07-20T17:30:40;6.38;;;2.80;;
26530;SDS011;14201;43.188;24.160;2023-07-20T17:33:05;10.35;;;3.55;;
26530;SDS011;14201;43.188;24.160;2023-07-20T17:35:31;7.60;;;3.10;;
26530;SDS011;14201;43.188;24.160;2023-07-20T17:37:57;14.18;;;2.80;;
26530;SDS011;14201;43.188;24.160;2023-07-20T17:40:22;6.18;;;3.05;;
26530;SDS011;14201;43.188;24.160;2023-07-20T17:42:49;5.97;;;2.70;;
26530;SDS011;14201;43.188;24.160;2023-07-20T17:45:15;7.47;;;3.38;;
26530;SDS011;14201;43.188;24.160;2023-07-20T17:47:41;7.32;;;3.20;;
26530;SDS011;14201;43.188;24.160;2023-07-20T17:50:08;6.70;;;3.17;;
26530;SDS011;14201;43.188;24.160;2023-07-20T17:52:37;6.30;;;2.90;;
26530;SDS011;14201;43.188;24.160;2023-07-20T17:55:03;9.65;;;3.47;;
26530;SDS011;14201;43.188;24.160;2023-07-20T17:57:30;6.47;;;3.25;;
26530;SDS011;14201;43.188;24.160;2023-07-20T17:59:56;6.60;;;2.78;;
26530;SDS011;14201;43.188;24.160;2023-07-20T18:02:23;7.43;;;2.70;;
26530;SDS011;14201;43.188;24.160;2023-07-20T18:04:51;11.32;;;2.97;;
26530;SDS011;14201;43.188;24.160;2023-07-20T18:07:17;8.95;;;3.33;;
26530;SDS011;14201;43.188;24.160;2023-07-20T18:09:43;8.43;;;3.42;;
26530;SDS011;14201;43.188;24.160;2023-07-20T18:12:08;8.90;;;2.97;;
26530;SDS011;14201;43.188;24.160;2023-07-20T18:14:34;10.00;;;3.25;;
26530;SDS011;14201;43.188;24.160;2023-07-20T18:16:59;5.05;;;3.00;;
26530;SDS011;14201;43.188;24.160;2023-07-20T18:19:25;7.22;;;3.20;;
26530;SDS011;14201;43.188;24.160;2023-07-20T18:21:50;7.90;;;3.70;;
26530;SDS011;14201;43.188;24.160;2023-07-20T18:24:16;8.20;;;3.60;;
26530;SDS011;14201;43.188;24.160;2023-07-20T18:26:42;9.52;;;3.53;;
26530;SDS011;14201;43.188;24.160;2023-07-20T18:29:08;10.60;;;3.58;;
26530;SDS011;14201;43.188;24.160;2023-07-20T18:31:33;5.82;;;3.25;;
26530;SDS011;14201;43.188;24.160;2023-07-20T18:33:59;6.00;;;3.40;;
26530;SDS011;14201;43.188;24.160;2023-07-20T18:36:24;7.65;;;3.10;;
26530;SDS011;14201;43.188;24.160;2023-07-20T18:38:50;10.20;;;3.95;;
26530;SDS011;14201;43.188;24.160;2023-07-20T18:41:16;8.80;;;3.40;;
26530;SDS011;14201;43.188;24.160;2023-07-20T18:43:42;15.07;;;4.00;;
26530;SDS011;14201;43.188;24.160;2023-07-20T18:46:07;15.70;;;4.00;;
26530;SDS011;14201;43.188;24.160;2023-07-20T18:48:33;7.95;;;3.80;;
26530;SDS011;14201;43.188;24.160;2023-07-20T18:50:58;7.60;;;3.13;;
26530;SDS011;14201;43.188;24.160;2023-07-20T18:53:24;7.18;;;3.80;;
26530;SDS011;14201;43.188;24.160;2023-07-20T18:55:50;6.93;;;3.88;;
26530;SDS011;14201;43.188;24.160;2023-07-20T18:58:15;8.55;;;3.60;;
26530;SDS011;14201;43.188;24.160;2023-07-20T19:00:41;10.25;;;3.90;;
26530;SDS011;14201;43.188;24.160;2023-07-20T19:03:06;7.10;;;3.90;;
26530;SDS011;14201;43.188;24.160;2023-07-20T19:05:32;6.72;;;3.50;;
26530;SDS011;14201;43.188;24.160;2023-07-20T19:08:02;5.90;;;3.65;;
26530;SDS011;14201;43.188;24.160;2023-07-20T19:10:28;9.07;;;4.40;;
26530;SDS011;14201;43.188;24.160;2023-07-20T19:12:54;10.13;;;4.82;;
26530;SDS011;14201;43.188;24.160;2023-07-20T19:15:20;9.80;;;4.65;;
26530;SDS011;14201;43.188;24.160;2023-07-20T19:17:46;9.73;;;4.15;;
26530;SDS011;14201;43.188;24.160;2023-07-20T19:20:12;7.00;;;3.58;;
26530;SDS011;14201;43.188;24.160;2023-07-20T19:22:42;13.10;;;4.43;;
26530;SDS011;14201;43.188;24.160;2023-07-20T19:25:09;6.65;;;3.20;;
26530;SDS011;14201;43.188;24.160;2023-07-20T19:27:40;6.60;;;3.75;;
26530;SDS011;14201;43.188;24.160;2023-07-20T19:30:07;7.35;;;3.85;;
26530;SDS011;14201;43.188;24.160;2023-07-20T19:32:33;10.07;;;3.78;;
26530;SDS011;14201;43.188;24.160;2023-07-20T19:35:00;9.05;;;4.03;;
26530;SDS011;14201;43.188;24.160;2023-07-20T19:37:27;8.40;;;4.22;;
26530;SDS011;14201;43.188;24.160;2023-07-20T19:39:53;7.78;;;3.97;;
26530;SDS011;14201;43.188;24.160;2023-07-20T19:42:19;9.13;;;4.22;;
26530;SDS011;14201;43.188;24.160;2023-07-20T19:44:44;10.43;;;4.18;;
26530;SDS011;14201;43.188;24.160;2023-07-20T19:47:10;8.45;;;4.22;;
26530;SDS011;14201;43.188;24.160;2023-07-20T19:49:35;7.25;;;4.10;;
26530;SDS011;14201;43.188;24.160;2023-07-20T19:52:01;9.27;;;3.97;;
26530;SDS011;14201;43.188;24.160;2023-07-20T19:54:29;8.63;;;4.22;;
26530;SDS011;14201;43.188;24.160;2023-07-20T19:56:54;7.35;;;4.13;;
26530;SDS011;14201;43.188;24.160;2023-07-20T19:59:20;8.30;;;4.40;;
26530;SDS011;14201;43.188;24.160;2023-07-20T20:01:46;9.80;;;4.78;;
26530;SDS011;14201;43.188;24.160;2023-07-20T20:04:11;7.65;;;4.55;;
26530;SDS011;14201;43.188;24.160;2023-07-20T20:06:37;8.30;;;4.40;;
26530;SDS011;14201;43.188;24.160;2023-07-20T20:09:03;11.18;;;4.30;;
26530;SDS011;14201;43.188;24.160;2023-07-20T20:11:29;7.75;;;4.53;;
26530;SDS011;14201;43.188;24.160;2023-07-20T20:13:55;13.80;;;4.60;;
26530;SDS011;14201;43.188;24.160;2023-07-20T20:16:20;9.27;;;4.50;;
26530;SDS011;14201;43.188;24.160;2023-07-20T20:18:46;7.13;;;4.72;;
26530;SDS011;14201;43.188;24.160;2023-07-20T20:21:11;6.15;;;3.90;;
26530;SDS011;14201;43.188;24.160;2023-07-20T20:23:37;7.35;;;4.20;;
26530;SDS011;14201;43.188;24.160;2023-07-20T20:26:06;9.02;;;4.47;;
26530;SDS011;14201;43.188;24.160;2023-07-20T20:28:35;8.90;;;4.55;;
26530;SDS011;14201;43.188;24.160;2023-07-20T20:31:01;7.13;;;4.47;;
26530;SDS011;14201;43.188;24.160;2023-07-20T20:33:29;7.50;;;4.70;;
26530;SDS011;14201;43.188;24.160;2023-07-20T20:35:55;9.80;;;4.38;;
26530;SDS011;14201;43.188;24.160;2023-07-20T20:38:24;9.73;;;4.78;;
26530;SDS011;14201;43.188;24.160;2023-07-20T20:40:50;7.85;;;4.18;;
26530;SDS011;14201;43.188;24.160;2023-07-20T20:43:17;9.20;;;4.40;;
26530;SDS011;14201;43.188;24.160;2023-07-20T20:45:43;7.45;;;3.75;;
26530;SDS011;14201;43.188;24.160;2023-07-20T20:48:08;8.32;;;4.50;;
26530;SDS011;14201;43.188;24.160;2023-07-20T20:50:35;8.18;;;4.32;;
26530;SDS011;14201;43.188;24.160;2023-07-20T20:53:01;8.13;;;4.45;;
26530;SDS011;14201;43.188;24.160;2023-07-20T20:55:27;9.50;;;4.53;;
26530;SDS011;14201;43.188;24.160;2023-07-20T20:57:53;8.07;;;3.92;;
26530;SDS011;14201;43.188;24.160;2023-07-20T21:00:23;8.00;;;4.22;;
26530;SDS011;14201;43.188;24.160;2023-07-20T21:02:49;8.80;;;4.20;;
26530;SDS011;14201;43.188;24.160;2023-07-20T21:05:16;8.15;;;3.95;;
26530;SDS011;14201;43.188;24.160;2023-07-20T21:07:41;10.68;;;4.35;;
26530;SDS011;14201;43.188;24.160;2023-07-20T21:10:07;31.73;;;5.22;;
26530;SDS011;14201;43.188;24.160;2023-07-20T21:12:34;14.73;;;5.15;;
26530;SDS011;14201;43.188;24.160;2023-07-20T21:15:00;9.98;;;5.15;;
26530;SDS011;14201;43.188;24.160;2023-07-20T21:17:31;13.18;;;4.95;;
26530;SDS011;14201;43.188;24.160;2023-07-20T21:19:57;8.07;;;4.80;;
26530;SDS011;14201;43.188;24.160;2023-07-20T21:22:22;8.52;;;4.70;;
26530;SDS011;14201;43.188;24.160;2023-07-20T21:24:48;8.48;;;4.72;;
26530;SDS011;14201;43.188;24.160;2023-07-20T21:27:14;9.43;;;4.40;;
26530;SDS011;14201;43.188;24.160;2023-07-20T21:29:39;9.77;;;5.15;;
26530;SDS011;14201;43.188;24.160;2023-07-20T21:32:05;6.90;;;4.40;;
26530;SDS011;14201;43.188;24.160;2023-07-20T21:34:32;10.10;;;4.80;;
26530;SDS011;14201;43.188;24.160;2023-07-20T21:36:58;11.60;;;4.40;;
26530;SDS011;14201;43.188;24.160;2023-07-20T21:39:23;8.65;;;4.22;;
26530;SDS011;14201;43.188;24.160;2023-07-20T21:41:52;9.52;;;4.80;;
26530;SDS011;14201;43.188;24.160;2023-07-20T21:44:17;7.18;;;4.70;;
26530;SDS011;14201;43.188;24.160;2023-07-20T21:46:43;10.32;;;4.90;;
26530;SDS011;14201;43.188;24.160;2023-07-20T21:49:09;7.90;;;4.65;;
26530;SDS011;14201;43.188;24.160;2023-07-20T21:51:34;12.88;;;4.78;;
26530;SDS011;14201;43.188;24.160;2023-07-20T21:54:00;7.82;;;4.68;;
26530;SDS011;14201;43.188;24.160;2023-07-20T21:56:26;7.85;;;4.65;;
26530;SDS011;14201;43.188;24.160;2023-07-20T22:08:33;7.70;;;4.80;;
26530;SDS011;14201;43.188;24.160;2023-07-20T22:13:34;10.80;;;5.20;;
